createdAt,value
2022-10-18T00:00:54.981Z,100.00
2022-10-18T00:03:22.847Z,100.00
2022-10-18T00:05:50.862Z,100.00
2022-10-18T00:08:20.203Z,100.00
2022-10-18T00:10:50.040Z,100.00
2022-10-18T00:13:18.165Z,100.00
2022-10-18T00:15:50.163Z,100.00
2022-10-18T00:18:17.955Z,100.00
2022-10-18T00:20:46.034Z,100.00
2022-10-18T00:23:13.854Z,100.00
2022-10-18T00:25:41.647Z,100.00
2022-10-18T00:28:10.803Z,100.00
2022-10-18T00:30:38.717Z,100.00
2022-10-18T00:33:06.505Z,100.00
2022-10-18T00:35:36.257Z,100.00
2022-10-18T00:38:04.097Z,100.00
2022-10-18T00:40:31.801Z,100.00
2022-10-18T00:42:59.568Z,100.00
2022-10-18T00:45:28.870Z,100.00
2022-10-18T00:48:00.762Z,100.00
2022-10-18T00:50:31.667Z,100.00
2022-10-18T00:53:02.617Z,100.00
2022-10-18T00:55:33.255Z,100.00
2022-10-18T00:58:02.024Z,100.00
2022-10-18T01:00:31.256Z,100.00
2022-10-18T01:03:00.014Z,100.00
2022-10-18T01:05:28.039Z,100.00
2022-10-18T01:08:28.203Z,100.00
2022-10-18T01:11:07.206Z,100.00
2022-10-18T01:13:47.387Z,100.00
2022-10-18T01:16:24.010Z,100.00
2022-10-18T01:18:57.961Z,100.00
2022-10-18T01:21:38.326Z,100.00
2022-10-18T01:24:45.072Z,100.00
2022-10-18T01:27:30.546Z,100.00
2022-10-18T01:30:30.140Z,100.00
2022-10-18T01:33:05.179Z,100.00
2022-10-18T01:35:37.357Z,100.00
2022-10-18T01:38:11.440Z,100.00
2022-10-18T01:40:42.388Z,100.00
2022-10-18T01:43:13.314Z,100.00
2022-10-18T01:45:42.737Z,100.00
2022-10-18T01:48:12.912Z,100.00
2022-10-18T01:50:40.689Z,100.00
2022-10-18T01:53:22.714Z,100.00
2022-10-18T01:55:58.709Z,100.00
2022-10-18T01:58:36.112Z,100.00
2022-10-18T02:03:44.304Z,100.00
2022-10-18T02:06:21.615Z,100.00
2022-10-18T02:08:54.290Z,100.00
2022-10-18T02:11:22.210Z,100.00
2022-10-18T02:13:54.790Z,100.00
2022-10-18T02:16:26.886Z,100.00
2022-10-18T02:18:59.591Z,100.00
2022-10-18T02:21:30.625Z,100.00
2022-10-18T02:24:00.763Z,100.00
2022-10-18T02:26:28.579Z,100.00
2022-10-18T02:28:56.655Z,100.00
2022-10-18T02:31:29.352Z,100.00
2022-10-18T02:34:01.504Z,100.00
2022-10-18T02:36:34.666Z,100.00
2022-10-18T02:39:06.915Z,100.00
2022-10-18T02:41:35.014Z,100.00
2022-10-18T02:44:02.767Z,100.00
2022-10-18T02:46:30.467Z,100.00
2022-10-18T02:48:59.451Z,100.00
2022-10-18T02:51:27.204Z,100.00
2022-10-18T02:53:55.004Z,100.00
2022-10-18T02:56:22.731Z,100.00
2022-10-18T02:58:50.493Z,100.00
2022-10-18T03:01:18.345Z,100.00
2022-10-18T03:03:46.155Z,100.00
2022-10-18T03:06:15.153Z,100.00
2022-10-18T03:08:42.772Z,100.00
2022-10-18T03:11:10.447Z,100.00
2022-10-18T03:13:38.431Z,100.00
2022-10-18T03:16:06.785Z,100.00
2022-10-18T03:18:34.426Z,100.00
2022-10-18T03:21:05.425Z,100.00
2022-10-18T03:23:35.099Z,100.00
2022-10-18T03:26:03.341Z,100.00
2022-10-18T03:28:31.282Z,100.00
2022-10-18T03:31:01.210Z,100.00
2022-10-18T03:33:28.907Z,100.00
2022-10-18T03:35:57.026Z,100.00
2022-10-18T03:38:24.883Z,100.00
2022-10-18T03:40:54.115Z,100.00
2022-10-18T03:43:21.951Z,100.00
2022-10-18T03:45:49.699Z,100.00
2022-10-18T03:48:17.495Z,100.00
2022-10-18T03:50:45.454Z,100.00
2022-10-18T03:53:13.225Z,100.00
2022-10-18T03:55:40.974Z,100.00
2022-10-18T03:58:10.334Z,100.00
2022-10-18T04:00:38.034Z,100.00
2022-10-18T04:03:05.707Z,100.00
2022-10-18T04:05:34.482Z,100.00
2022-10-18T04:08:02.145Z,100.00
2022-10-18T04:10:30.372Z,100.00
2022-10-18T04:12:58.131Z,100.00
2022-10-18T04:15:27.354Z,100.00
2022-10-18T04:17:55.083Z,100.00
2022-10-18T04:20:22.696Z,100.00
2022-10-18T04:22:50.675Z,100.00
2022-10-18T04:25:18.511Z,100.00
2022-10-18T04:27:46.320Z,100.00
2022-10-18T04:30:14.049Z,100.00
2022-10-18T04:32:43.150Z,100.00
2022-10-18T04:35:11.402Z,100.00
2022-10-18T04:37:39.197Z,100.00
2022-10-18T04:40:08.303Z,100.00
2022-10-18T04:42:36.046Z,100.00
2022-10-18T04:45:03.710Z,100.00
2022-10-18T04:47:31.832Z,100.00
2022-10-18T04:50:01.211Z,100.00
2022-10-18T04:52:28.931Z,100.00
2022-10-18T04:54:56.631Z,100.00
2022-10-18T04:57:24.427Z,100.00
2022-10-18T04:59:52.166Z,100.00
2022-10-18T05:02:19.845Z,100.00
2022-10-18T05:04:47.608Z,100.00
2022-10-18T05:07:17.206Z,100.00
2022-10-18T05:09:44.871Z,100.00
2022-10-18T05:12:12.600Z,100.00
2022-10-18T05:14:40.332Z,100.00
2022-10-18T05:17:07.983Z,100.00
2022-10-18T05:19:35.659Z,100.00
2022-10-18T05:22:03.383Z,100.00
2022-10-18T05:24:32.595Z,100.00
2022-10-18T05:27:00.287Z,100.00
2022-10-18T05:32:00.800Z,100.00
2022-10-18T05:34:31.868Z,100.00
2022-10-18T05:37:00.464Z,100.00
2022-10-18T05:39:28.237Z,100.00
2022-10-18T05:41:58.094Z,100.00
2022-10-18T05:44:25.840Z,100.00
2022-10-18T05:46:53.692Z,100.00
2022-10-18T05:49:21.609Z,100.00
2022-10-18T05:51:49.393Z,100.00
2022-10-18T05:54:17.289Z,100.00
2022-10-18T05:56:59.818Z,100.00
2022-10-18T05:59:28.974Z,100.00
2022-10-18T06:01:56.703Z,100.00
2022-10-18T06:04:24.717Z,100.00
2022-10-18T06:06:52.376Z,100.00
2022-10-18T06:09:20.127Z,100.00
2022-10-18T06:11:47.761Z,100.00
2022-10-18T06:14:15.402Z,100.00
2022-10-18T06:16:44.512Z,100.00
2022-10-18T06:19:12.240Z,100.00
2022-10-18T06:21:39.997Z,100.00
2022-10-18T06:24:07.966Z,100.00
2022-10-18T06:26:35.675Z,100.00
2022-10-18T06:29:03.462Z,100.00
2022-10-18T06:31:31.317Z,100.00
2022-10-18T06:34:00.932Z,100.00
2022-10-18T06:36:28.762Z,100.00
2022-10-18T06:38:57.612Z,100.00
2022-10-18T06:41:25.306Z,100.00
2022-10-18T06:43:56.935Z,100.00
2022-10-18T06:46:24.788Z,100.00
2022-10-18T06:48:52.441Z,100.00
2022-10-18T06:51:21.423Z,100.00
2022-10-18T06:53:59.691Z,100.00
2022-10-18T06:56:37.365Z,100.00
2022-10-18T06:59:05.624Z,100.00
2022-10-18T07:01:33.528Z,100.00
2022-10-18T07:04:01.398Z,100.00
2022-10-18T07:06:30.542Z,100.00
2022-10-18T07:08:58.269Z,100.00
2022-10-18T07:11:27.889Z,100.00
2022-10-18T07:14:02.965Z,100.00
2022-10-18T07:16:31.313Z,100.00
2022-10-18T07:18:59.205Z,100.00
2022-10-18T07:21:27.817Z,100.00
2022-10-18T07:23:57.416Z,100.00
2022-10-18T07:26:29.033Z,100.00
2022-10-18T07:28:59.063Z,100.00
2022-10-18T07:31:27.871Z,100.00
2022-10-18T07:33:55.606Z,100.00
2022-10-18T07:36:24.505Z,100.00
2022-10-18T07:38:53.008Z,100.00
2022-10-18T07:41:22.233Z,100.00
2022-10-18T07:43:51.815Z,100.00
2022-10-18T07:46:20.937Z,100.00
2022-10-18T07:48:48.915Z,100.00
2022-10-18T07:51:16.927Z,100.00
2022-10-18T07:53:44.987Z,100.00
2022-10-18T07:56:16.898Z,100.00
2022-10-18T07:58:47.514Z,100.00
2022-10-18T08:01:16.550Z,100.00
2022-10-18T08:03:44.709Z,100.00
2022-10-18T08:06:14.474Z,100.00
2022-10-18T08:08:43.015Z,100.00
2022-10-18T08:11:12.805Z,100.00
2022-10-18T08:13:40.483Z,100.00
2022-10-18T08:16:12.296Z,100.00
2022-10-18T08:18:40.538Z,100.00
2022-10-18T08:21:10.759Z,100.00
2022-10-18T08:23:39.075Z,100.00
2022-10-18T08:26:09.324Z,100.00
2022-10-18T08:28:37.587Z,100.00
2022-10-18T08:31:05.875Z,100.00
2022-10-18T08:33:35.886Z,100.00
2022-10-18T08:36:06.063Z,100.00
2022-10-18T08:38:34.764Z,100.00
2022-10-18T08:41:16.589Z,100.00
2022-10-18T08:43:52.624Z,100.00
2022-10-18T08:46:20.456Z,100.00
2022-10-18T08:48:55.149Z,100.00
2022-10-18T08:51:30.684Z,100.00
2022-10-18T08:54:05.882Z,100.00
2022-10-18T08:56:35.043Z,100.00
2022-10-18T08:59:04.444Z,100.00
2022-10-18T09:01:41.797Z,100.00
2022-10-18T09:04:26.086Z,100.00
2022-10-18T09:07:10.533Z,100.00
2022-10-18T09:09:47.628Z,100.00
2022-10-18T09:12:32.741Z,100.00
2022-10-18T09:15:18.064Z,100.00
2022-10-18T09:17:58.349Z,100.00
2022-10-18T09:20:34.170Z,100.00
2022-10-18T09:23:14.521Z,100.00
2022-10-18T09:25:46.803Z,100.00
2022-10-18T09:28:26.568Z,100.00
2022-10-18T09:31:04.780Z,100.00
2022-10-18T09:33:41.651Z,100.00
2022-10-18T09:36:15.312Z,100.00
2022-10-18T09:38:46.479Z,100.00
2022-10-18T09:41:19.486Z,100.00
2022-10-18T09:43:53.705Z,100.00
2022-10-18T09:46:25.847Z,100.00
2022-10-18T09:48:59.572Z,100.00
2022-10-18T09:51:34.679Z,100.00
2022-10-18T09:54:19.005Z,100.00
2022-10-18T09:56:50.917Z,100.00
2022-10-18T09:59:38.749Z,100.00
2022-10-18T10:02:07.568Z,100.00
2022-10-18T10:04:35.423Z,100.00
2022-10-18T10:07:09.443Z,100.00
2022-10-18T10:09:41.665Z,100.00
2022-10-18T10:12:27.120Z,100.00
2022-10-18T10:14:54.873Z,100.00
2022-10-18T10:17:24.996Z,100.00
2022-10-18T10:20:03.853Z,100.00
2022-10-18T10:22:37.207Z,100.00
2022-10-18T10:25:06.078Z,100.00
2022-10-18T10:27:41.038Z,100.00
2022-10-18T10:30:24.046Z,100.00
2022-10-18T10:32:53.333Z,100.00
2022-10-18T10:35:34.054Z,100.00
2022-10-18T10:38:23.894Z,100.00
2022-10-18T10:40:52.422Z,100.00
2022-10-18T10:43:37.484Z,100.00
2022-10-18T10:46:08.820Z,100.00
2022-10-18T10:48:46.856Z,100.00
2022-10-18T10:51:17.493Z,100.00
2022-10-18T10:53:52.225Z,100.00
2022-10-18T10:56:25.342Z,100.00
2022-10-18T10:58:54.515Z,100.00
2022-10-18T11:01:31.636Z,100.00
2022-10-18T11:04:02.521Z,100.00
2022-10-18T11:06:41.642Z,100.00
2022-10-18T11:09:24.132Z,100.00
2022-10-18T11:12:02.401Z,100.00
2022-10-18T11:14:35.934Z,100.00
2022-10-18T11:17:12.991Z,100.00
2022-10-18T11:19:50.448Z,100.00
2022-10-18T11:22:21.847Z,100.00
2022-10-18T11:24:50.860Z,100.00
2022-10-18T11:27:26.327Z,100.00
2022-10-18T11:30:04.684Z,100.00
2022-10-18T11:32:41.187Z,100.00
2022-10-18T11:35:27.831Z,100.00
2022-10-18T11:38:13.244Z,100.00
2022-10-18T11:40:55.767Z,100.00
2022-10-18T11:43:38.890Z,100.00
2022-10-18T11:46:23.949Z,100.00
2022-10-18T11:49:03.783Z,100.00
2022-10-18T11:51:56.300Z,100.00
2022-10-18T11:54:46.402Z,100.00
2022-10-18T11:57:32.354Z,100.00
2022-10-18T12:00:09.931Z,100.00
2022-10-18T12:03:03.861Z,100.00
2022-10-18T12:05:39.168Z,100.00
2022-10-18T12:08:11.396Z,100.00
2022-10-18T12:10:52.597Z,100.00
2022-10-18T12:13:37.535Z,100.00
2022-10-18T12:16:08.167Z,100.00
2022-10-18T12:18:37.975Z,100.00
2022-10-18T12:21:07.779Z,100.00
2022-10-18T12:23:41.063Z,100.00
2022-10-18T12:26:11.640Z,100.00
2022-10-18T12:28:50.588Z,100.00
2022-10-18T12:31:25.726Z,100.00
2022-10-18T12:33:57.457Z,100.00
2022-10-18T12:36:55.439Z,100.00
2022-10-18T12:39:37.517Z,100.00
2022-10-18T12:42:21.115Z,100.00
2022-10-18T12:44:50.857Z,98.47
2022-10-18T12:47:23.893Z,98.87
2022-10-18T12:49:58.935Z,100.00
2022-10-18T12:52:29.169Z,93.20
2022-10-18T12:55:29.685Z,94.64
2022-10-18T12:58:23.465Z,89.85
2022-10-18T13:01:03.638Z,92.50
2022-10-18T13:03:42.359Z,86.85
2022-10-18T13:06:10.156Z,94.75
2022-10-18T13:08:42.810Z,92.23
2022-10-18T13:11:32.782Z,90.52
2022-10-18T13:14:13.436Z,92.37
2022-10-18T13:16:49.543Z,86.68
2022-10-18T13:19:25.195Z,81.73
2022-10-18T13:22:14.215Z,76.71
2022-10-18T13:24:47.471Z,75.31
2022-10-18T13:27:37.024Z,79.80
2022-10-18T13:30:33.953Z,83.01
2022-10-18T13:33:27.120Z,78.05
2022-10-18T13:35:57.328Z,72.69
2022-10-18T13:38:42.241Z,79.02
2022-10-18T13:41:12.175Z,77.19
2022-10-18T13:44:01.194Z,84.86
2022-10-18T13:47:01.883Z,78.77
2022-10-18T13:49:45.576Z,83.69
2022-10-18T13:52:21.930Z,79.19
2022-10-18T13:55:01.977Z,72.96
2022-10-18T13:57:46.207Z,77.50
2022-10-18T14:00:35.481Z,72.15
2022-10-18T14:03:44.637Z,72.85
2022-10-18T14:06:16.630Z,71.20
2022-10-18T14:08:50.213Z,73.89
2022-10-18T14:11:28.338Z,71.48
2022-10-18T14:14:01.462Z,72.99
2022-10-18T14:16:37.516Z,78.71
2022-10-18T14:19:18.667Z,69.63
2022-10-18T14:21:54.783Z,73.18
2022-10-18T14:24:25.487Z,70.25
2022-10-18T14:27:19.159Z,65.95
2022-10-18T14:29:47.404Z,73.06
2022-10-18T14:32:25.369Z,67.10
2022-10-18T14:34:55.799Z,68.33
2022-10-18T14:37:35.218Z,70.79
2022-10-18T14:40:03.520Z,73.77
2022-10-18T14:42:31.252Z,73.80
2022-10-18T14:44:59.114Z,74.66
2022-10-18T14:47:28.658Z,73.09
2022-10-18T14:49:57.800Z,74.58
2022-10-18T14:52:31.622Z,74.71
2022-10-18T14:55:03.838Z,75.13
2022-10-18T14:57:34.921Z,73.86
2022-10-18T15:00:06.868Z,77.17
2022-10-18T15:02:38.585Z,74.07
2022-10-18T15:05:10.299Z,73.64
2022-10-18T15:07:38.590Z,75.05
2022-10-18T15:10:15.583Z,78.21
2022-10-18T15:13:08.055Z,74.08
2022-10-18T15:15:34.711Z,77.53
2022-10-18T15:18:05.108Z,76.50
2022-10-18T15:20:35.187Z,72.98
2022-10-18T15:23:23.494Z,74.21
2022-10-18T15:25:54.483Z,74.38
2022-10-18T15:28:29.011Z,72.57
2022-10-18T15:30:58.249Z,71.70
2022-10-18T15:33:27.879Z,72.75
2022-10-18T15:35:56.263Z,72.48
2022-10-18T15:38:27.757Z,73.51
2022-10-18T15:40:56.982Z,80.62
2022-10-18T15:43:40.243Z,79.66
2022-10-18T15:46:08.006Z,80.50
2022-10-18T15:48:38.192Z,78.28
2022-10-18T15:51:07.706Z,81.74
2022-10-18T15:53:42.506Z,80.22
2022-10-18T15:56:29.061Z,83.23
2022-10-18T15:58:57.963Z,85.75
2022-10-18T16:01:33.631Z,81.16
2022-10-18T16:04:01.936Z,84.67
2022-10-18T16:06:29.986Z,86.81
2022-10-18T16:08:57.605Z,88.77
2022-10-18T16:11:27.150Z,89.42
2022-10-18T16:13:57.920Z,89.57
2022-10-18T16:16:29.994Z,91.43
2022-10-18T16:18:58.743Z,91.44
2022-10-18T16:21:29.036Z,95.59
2022-10-18T16:23:56.970Z,95.99
2022-10-18T16:26:26.921Z,95.89
2022-10-18T16:28:56.118Z,98.59
2022-10-18T16:31:26.409Z,98.87
2022-10-18T16:33:55.647Z,100.00
2022-10-18T16:36:24.972Z,100.00
2022-10-18T16:38:54.892Z,100.00
2022-10-18T16:41:23.318Z,100.00
2022-10-18T16:43:52.384Z,100.00
2022-10-18T16:46:22.392Z,100.00
2022-10-18T16:48:51.767Z,100.00
2022-10-18T16:51:19.528Z,100.00
2022-10-18T16:53:47.752Z,100.00
2022-10-18T16:56:17.514Z,100.00
2022-10-18T16:58:46.199Z,100.00
2022-10-18T17:01:16.891Z,100.00
2022-10-18T17:03:45.573Z,100.00
2022-10-18T17:06:16.839Z,100.00
2022-10-18T17:08:44.926Z,100.00
2022-10-18T17:11:15.160Z,100.00
2022-10-18T17:13:43.272Z,100.00
2022-10-18T17:16:23.688Z,100.00
2022-10-18T17:18:51.622Z,100.00
2022-10-18T17:21:19.680Z,100.00
2022-10-18T17:23:47.426Z,100.00
2022-10-18T17:26:28.207Z,100.00
2022-10-18T17:28:58.943Z,100.00
2022-10-18T17:31:28.674Z,100.00
2022-10-18T17:33:56.407Z,100.00
2022-10-18T17:36:24.062Z,100.00
2022-10-18T17:38:52.197Z,100.00
2022-10-18T17:41:19.922Z,100.00
2022-10-18T17:43:48.320Z,100.00
2022-10-18T17:46:17.738Z,100.00
2022-10-18T17:48:47.472Z,100.00
2022-10-18T17:51:17.479Z,100.00
2022-10-18T17:53:45.284Z,100.00
2022-10-18T17:56:13.767Z,100.00
2022-10-18T17:58:43.480Z,100.00
2022-10-18T18:01:12.740Z,100.00
2022-10-18T18:03:40.912Z,100.00
2022-10-18T18:06:18.221Z,100.00
2022-10-18T18:08:46.833Z,100.00
2022-10-18T18:11:14.736Z,100.00
2022-10-18T18:13:42.624Z,100.00
2022-10-18T18:16:12.664Z,100.00
2022-10-18T18:18:40.399Z,100.00
2022-10-18T18:21:08.154Z,100.00
2022-10-18T18:23:37.292Z,100.00
2022-10-18T18:26:05.148Z,100.00
2022-10-18T18:28:32.870Z,100.00
2022-10-18T18:31:00.566Z,100.00
2022-10-18T18:33:28.415Z,100.00
2022-10-18T18:35:57.260Z,100.00
2022-10-18T18:38:25.680Z,100.00
2022-10-18T18:41:05.541Z,100.00
2022-10-18T18:43:33.321Z,100.00
2022-10-18T18:46:01.340Z,100.00
2022-10-18T18:48:29.698Z,100.00
2022-10-18T18:50:57.308Z,100.00
2022-10-18T18:53:28.542Z,100.00
2022-10-18T18:56:04.443Z,100.00
2022-10-18T18:58:32.349Z,100.00
2022-10-18T19:01:00.033Z,100.00
2022-10-18T19:03:27.839Z,100.00
2022-10-18T19:06:04.145Z,100.00
2022-10-18T19:08:31.972Z,100.00
2022-10-18T19:10:59.738Z,100.00
2022-10-18T19:13:28.944Z,100.00
2022-10-18T19:16:11.632Z,100.00
2022-10-18T19:18:39.405Z,100.00
2022-10-18T19:21:07.254Z,100.00
2022-10-18T19:23:35.044Z,100.00
2022-10-18T19:26:10.688Z,100.00
2022-10-18T19:28:40.172Z,100.00
2022-10-18T19:31:08.042Z,100.00
2022-10-18T19:33:48.515Z,100.00
2022-10-18T19:36:23.491Z,100.00
2022-10-18T19:38:51.306Z,100.00
2022-10-18T19:41:19.116Z,100.00
2022-10-18T19:43:48.394Z,100.00
2022-10-18T19:46:16.153Z,100.00
2022-10-18T19:48:43.862Z,100.00
2022-10-18T19:51:15.535Z,100.00
2022-10-18T19:53:47.447Z,100.00
2022-10-18T19:56:19.608Z,100.00
2022-10-18T19:58:49.369Z,100.00
2022-10-18T20:01:18.358Z,100.00
2022-10-18T20:03:46.909Z,100.00
2022-10-18T20:06:14.922Z,100.00
2022-10-18T20:11:12.656Z,100.00
2022-10-18T20:13:40.759Z,100.00
2022-10-18T20:16:12.456Z,100.00
2022-10-18T20:18:43.122Z,100.00
2022-10-18T20:21:12.894Z,100.00
2022-10-18T20:23:41.860Z,100.00
2022-10-18T20:26:15.559Z,100.00
2022-10-18T20:28:46.230Z,100.00
2022-10-18T20:31:17.799Z,100.00
2022-10-18T20:33:46.120Z,100.00
2022-10-18T20:36:15.539Z,100.00
2022-10-18T20:38:44.722Z,100.00
2022-10-18T20:41:14.488Z,100.00
2022-10-18T20:43:42.901Z,100.00
2022-10-18T20:46:11.575Z,100.00
2022-10-18T20:48:40.699Z,100.00
2022-10-18T20:51:12.687Z,100.00
2022-10-18T20:53:41.613Z,100.00
2022-10-18T20:56:10.932Z,100.00
2022-10-18T20:58:39.971Z,100.00
2022-10-18T21:01:08.923Z,100.00
2022-10-18T21:03:38.868Z,100.00
2022-10-18T21:06:13.209Z,100.00
2022-10-18T21:08:41.363Z,100.00
2022-10-18T21:11:10.065Z,100.00
2022-10-18T21:13:38.011Z,100.00
2022-10-18T21:16:06.803Z,100.00
2022-10-18T21:18:36.182Z,100.00
2022-10-18T21:23:47.028Z,100.00
2022-10-18T21:26:16.357Z,100.00
2022-10-18T21:28:44.282Z,100.00
2022-10-18T21:31:14.534Z,100.00
2022-10-18T21:33:43.149Z,100.00
2022-10-18T21:36:12.978Z,100.00
2022-10-18T21:38:41.412Z,100.00
2022-10-18T21:41:10.346Z,100.00
2022-10-18T21:43:39.766Z,100.00
2022-10-18T21:46:07.627Z,100.00
2022-10-18T21:48:35.468Z,100.00
2022-10-18T21:51:04.460Z,100.00
2022-10-18T21:53:33.898Z,100.00
2022-10-18T21:56:06.826Z,100.00
2022-10-18T21:58:35.353Z,100.00
2022-10-18T22:01:03.178Z,100.00
2022-10-18T22:03:31.032Z,100.00
2022-10-18T22:06:01.230Z,100.00
2022-10-18T22:08:29.917Z,100.00
2022-10-18T22:10:59.266Z,100.00
2022-10-18T22:13:28.899Z,100.00
2022-10-18T22:15:56.688Z,100.00
2022-10-18T22:18:24.434Z,100.00
2022-10-18T22:20:56.601Z,100.00
2022-10-18T22:23:24.459Z,100.00
2022-10-18T22:25:52.202Z,100.00
2022-10-18T22:28:21.331Z,100.00
2022-10-18T22:30:49.191Z,100.00
2022-10-18T22:33:16.903Z,100.00
2022-10-18T22:35:49.473Z,100.00
2022-10-18T22:38:17.312Z,100.00
2022-10-18T22:40:45.588Z,100.00
2022-10-18T22:43:13.415Z,100.00
2022-10-18T22:45:42.630Z,100.00
2022-10-18T22:48:10.266Z,100.00
2022-10-18T22:50:37.957Z,100.00
2022-10-18T22:53:05.815Z,100.00
2022-10-18T22:55:33.658Z,100.00
2022-10-18T22:58:01.497Z,100.00
2022-10-18T23:00:29.330Z,100.00
2022-10-18T23:02:58.559Z,100.00
2022-10-18T23:05:26.399Z,100.00
2022-10-18T23:07:54.617Z,100.00
2022-10-18T23:10:22.395Z,100.00
2022-10-18T23:12:50.064Z,100.00
2022-10-18T23:15:18.051Z,100.00
2022-10-18T23:17:45.887Z,100.00
2022-10-18T23:20:14.955Z,100.00
2022-10-18T23:22:42.846Z,100.00
2022-10-18T23:25:10.619Z,100.00
2022-10-18T23:27:38.623Z,100.00
2022-10-18T23:30:07.704Z,100.00
2022-10-18T23:32:35.696Z,100.00
2022-10-18T23:35:03.745Z,100.00
2022-10-18T23:37:33.122Z,100.00
2022-10-18T23:40:01.265Z,100.00
2022-10-18T23:42:29.115Z,100.00
2022-10-18T23:44:56.976Z,100.00
2022-10-18T23:47:24.763Z,100.00
2022-10-18T23:49:53.246Z,100.00
2022-10-18T23:52:20.892Z,100.00
2022-10-18T23:54:50.236Z,100.00
2022-10-18T23:57:18.096Z,100.00
2022-10-18T23:59:45.822Z,100.00
